Tawas City, Michigan
Current Conditions -  °F | °C
As of 7:34 PM on Monday 24 Nov 2014 (Local Time) from KOSC Reporting Station
Light Snow Light Snow  
Wind Chill: 20°   Ceiling: 800
Heat Index: 33°   Visibility: 1.7mi
Dew Point: 32°   Wind: 24mph
Humidity: 97%   Direction: 220°SW
Pressure: 29.32"   Gusts: 32mph
Location:  44.27°N, 83.52°W
Report Text: KOSC 250034Z AUTO 22021G28KT 1 3/4SM -SN OVC008 00/00 A2932 RMK AO2 T00050001
Loading
Personal Weather Stations






























Interactive Weather Map New forecast layout! Learn more

10-Day Weather Forecast

Advertisements
Track Severe Weather on mobile